Time;durP1;ratioP1;P1;durP2;ratioP2;P2;SDS_P1;SDS_P2;PMS_P1;PMS_P2;Temp;Humidity;BMP_temperature;BMP_pressure;BME280_temperature;BME280_humidity;BME280_pressure;Samples;Min_cycle;Max_cycle;Signal;HPM_P1;HPM_P2
2022/03/12 00:00:43;;;;;;;26.53;15.10;;;-5.50;59.30;;;;;;5053996;28;20036;-69
2022/03/12 00:03:13;;;;;;;28.80;13.53;;;-5.60;59.40;;;;;;5056719;28;20646;-72
2022/03/12 00:05:47;;;;;;;29.27;14.73;;;-5.60;59.50;;;;;;5056805;28;20024;-68
2022/03/12 00:08:13;;;;;;;30.90;14.63;;;-5.70;59.70;;;;;;5055558;28;20078;-68
2022/03/12 00:10:43;;;;;;;28.20;14.50;;;-5.70;59.80;;;;;;5056730;28;20021;-69
2022/03/12 00:13:08;;;;;;;28.23;14.30;;;-5.70;60.00;;;;;;5055433;28;20017;-68
2022/03/12 00:15:38;;;;;;;33.83;15.37;;;-5.80;60.00;;;;;;5056596;28;20024;-72
2022/03/12 00:18:06;;;;;;;31.27;15.63;;;-5.80;61.00;;;;;;5055002;28;20052;-72
2022/03/12 00:20:32;;;;;;;32.97;15.80;;;-5.80;60.50;;;;;;5056434;28;20032;-72
2022/03/12 00:22:57;;;;;;;42.17;19.13;;;-5.90;60.60;;;;;;5056162;28;20053;-72
2022/03/12 00:25:25;;;;;;;40.17;17.37;;;-5.90;60.70;;;;;;5056566;28;20051;-70
2022/03/12 00:27:51;;;;;;;36.53;16.50;;;-6.00;60.80;;;;;;5056415;28;20021;-72
2022/03/12 00:30:21;;;;;;;38.33;16.83;;;-6.00;61.00;;;;;;5056379;28;20386;-68
2022/03/12 00:32:47;;;;;;;32.73;15.77;;;-6.00;61.30;;;;;;5056429;28;20025;-71
2022/03/12 00:35:17;;;;;;;29.63;15.67;;;-6.10;61.40;;;;;;5056218;28;20017;-72
2022/03/12 00:37:43;;;;;;;39.60;17.37;;;-6.10;61.50;;;;;;5056157;28;20025;-68
2022/03/12 00:40:09;;;;;;;35.73;16.33;;;-6.10;61.50;;;;;;5055648;28;20841;-69
2022/03/12 00:42:35;;;;;;;39.90;16.40;;;-6.10;61.90;;;;;;5054746;28;20124;-69
2022/03/12 00:45:00;;;;;;;35.23;17.17;;;-6.20;62.10;;;;;;5056055;28;20025;-72
2022/03/12 00:47:26;;;;;;;39.43;17.40;;;-6.20;62.20;;;;;;5055876;28;20017;-72
2022/03/12 00:49:53;;;;;;;39.30;18.07;;;-6.30;62.50;;;;;;5054723;28;20040;-69
2022/03/12 00:52:19;;;;;;;39.57;17.97;;;-6.30;63.00;;;;;;5054562;28;20068;-68
2022/03/12 00:54:44;;;;;;;44.30;16.53;;;-6.30;63.20;;;;;;5055829;28;20048;-72
2022/03/12 00:57:12;;;;;;;126.73;56.57;;;-6.30;63.30;;;;;;5054572;28;20467;-72
2022/03/12 00:59:41;;;;;;;144.20;60.30;;;-6.30;63.30;;;;;;5054577;28;20029;-68
2022/03/12 01:02:12;;;;;;;163.20;73.50;;;-6.30;63.50;;;;;;5055569;28;20037;-72
2022/03/12 01:04:38;;;;;;;104.37;46.60;;;-6.30;63.60;;;;;;5055692;28;20029;-68
2022/03/12 01:07:03;;;;;;;77.60;35.33;;;-6.30;63.40;;;;;;5055573;28;20035;-71
2022/03/12 01:09:29;;;;;;;46.93;18.27;;;-6.30;63.50;;;;;;5055573;28;20045;-69
2022/03/12 01:11:55;;;;;;;39.77;18.20;;;-6.30;63.40;;;;;;5055304;28;20024;-71
2022/03/12 01:14:21;;;;;;;39.20;19.13;;;-6.30;63.30;;;;;;5054271;28;20112;-72
2022/03/12 01:16:47;;;;;;;36.60;18.67;;;-6.40;63.40;;;;;;5055527;28;20029;-71
2022/03/12 01:19:12;;;;;;;38.17;19.30;;;-6.40;63.40;;;;;;5055490;28;20108;-70
2022/03/12 01:21:38;;;;;;;40.43;18.90;;;-6.40;63.50;;;;;;5055307;28;20021;-71
2022/03/12 01:24:04;;;;;;;40.47;18.03;;;-6.40;63.50;;;;;;5054192;28;20052;-69
2022/03/12 01:26:29;;;;;;;37.03;19.83;;;-6.40;63.60;;;;;;5055354;28;20051;-68
2022/03/12 01:28:55;;;;;;;47.57;19.50;;;-6.40;63.50;;;;;;5054039;28;20045;-70
2022/03/12 01:31:22;;;;;;;47.40;19.87;;;-6.40;63.30;;;;;;5054072;28;20387;-69
2022/03/12 01:33:48;;;;;;;37.63;19.27;;;-6.40;63.30;;;;;;5053897;28;20040;-69
2022/03/12 01:36:15;;;;;;;37.53;18.73;;;-6.40;63.30;;;;;;5055041;28;20446;-68
2022/03/12 01:38:51;;;;;;;42.53;18.37;;;-6.40;63.30;;;;;;5055087;28;20485;-69
2022/03/12 01:41:30;;;;;;;37.57;17.93;;;-6.40;63.20;;;;;;5055227;28;20029;-71
2022/03/12 01:43:58;;;;;;;39.23;17.87;;;-6.40;63.00;;;;;;5055008;28;20036;-68
2022/03/12 01:46:41;;;;;;;41.17;17.73;;;-6.40;63.10;;;;;;5053797;28;20156;-72
2022/03/12 01:49:10;;;;;;;;;;;-6.50;63.10;;;;;;5055446;28;20017;-68
2022/03/12 01:51:41;;;;;;;37.87;16.97;;;-6.50;63.10;;;;;;5070272;28;19908;-68
2022/03/12 01:54:07;;;;;;;42.03;17.13;;;-6.60;63.10;;;;;;5053679;28;20055;-69
2022/03/12 01:56:37;;;;;;;34.30;18.70;;;-6.60;64.10;;;;;;5054624;28;20408;-71
2022/03/12 01:59:02;;;;;;;37.23;17.70;;;-6.70;63.80;;;;;;5054588;28;20045;-71
2022/03/12 02:01:29;;;;;;;41.23;17.93;;;-6.70;64.00;;;;;;5054543;28;20087;-69
2022/03/12 02:03:56;;;;;;;43.93;16.53;;;-6.80;63.90;;;;;;5054602;28;20024;-71
2022/03/12 02:06:24;;;;;;;33.07;17.23;;;-6.80;64.10;;;;;;5053216;28;20033;-71
2022/03/12 02:08:53;;;;;;;36.80;16.10;;;-6.80;64.10;;;;;;5054486;28;20021;-68
2022/03/12 02:11:28;;;;;;;43.97;16.93;;;-6.80;64.20;;;;;;5053476;28;20393;-68
2022/03/12 02:13:59;;;;;;;34.80;16.97;;;-6.70;64.30;;;;;;5054345;28;20484;-72
2022/03/12 02:16:26;;;;;;;42.43;18.53;;;-6.70;64.10;;;;;;5054380;28;20053;-69
2022/03/12 02:18:51;;;;;;;44.80;17.57;;;-6.70;64.00;;;;;;5052955;28;20059;-72
2022/03/12 02:21:43;;;;;;;38.17;18.77;;;-6.70;64.00;;;;;;5052822;28;20427;-69
2022/03/12 02:24:15;;;;;;;44.20;18.90;;;-6.70;64.30;;;;;;5052598;28;20052;-72
2022/03/12 02:26:43;;;;;;;39.20;20.00;;;-6.80;64.30;;;;;;5054060;28;20024;-70
2022/03/12 02:29:12;;;;;;;42.60;19.70;;;-6.70;64.20;;;;;;5053985;28;20029;-69
2022/03/12 02:31:40;;;;;;;33.03;15.80;;;-6.70;64.30;;;;;;5054043;28;20035;-68
2022/03/12 02:34:10;;;;;;;34.73;16.63;;;-6.70;64.30;;;;;;5054098;28;20021;-72
2022/03/12 02:36:37;;;;;;;36.20;16.23;;;-6.70;64.10;;;;;;5053898;28;20053;-72
2022/03/12 02:39:04;;;;;;;39.10;18.40;;;-6.70;64.00;;;;;;5053938;28;20021;-72
2022/03/12 02:41:30;;;;;;;30.23;15.27;;;-6.70;64.00;;;;;;5052459;28;20025;-71
2022/03/12 02:43:55;;;;;;;37.00;16.97;;;-6.70;64.10;;;;;;5053938;28;20040;-69
2022/03/12 02:46:22;;;;;;;34.47;15.47;;;-6.80;64.70;;;;;;5053874;28;20029;-69
2022/03/12 02:48:50;;;;;;;33.33;14.70;;;-6.80;63.90;;;;;;5052538;28;20402;-69
2022/03/12 02:51:16;;;;;;;27.47;15.47;;;-6.80;63.70;;;;;;5052392;28;20029;-72
2022/03/12 02:53:43;;;;;;;37.77;17.70;;;-6.90;63.70;;;;;;5052420;28;20066;-72
2022/03/12 02:56:10;;;;;;;36.23;16.03;;;-6.90;63.70;;;;;;5053583;28;20104;-69
2022/03/12 02:58:35;;;;;;;30.40;14.03;;;-6.90;63.60;;;;;;5053606;28;20509;-70
2022/03/12 03:01:03;;;;;;;36.97;16.73;;;-6.90;63.80;;;;;;5052229;28;20033;-71
2022/03/12 03:03:36;;;;;;;29.03;15.90;;;-6.90;63.90;;;;;;5053512;28;20029;-68
2022/03/12 03:06:02;;;;;;;31.60;15.82;;;-6.90;64.00;;;;;;5053417;28;20120;-68
2022/03/12 03:08:28;;;;;;;35.70;17.67;;;-6.90;64.00;;;;;;5053739;28;20060;-69
2022/03/12 03:10:57;;;;;;;33.97;15.43;;;-6.90;64.20;;;;;;5053513;28;20021;-69
2022/03/12 03:13:23;;;;;;;32.03;14.53;;;-6.90;64.40;;;;;;5053487;28;20021;-72
2022/03/12 03:16:00;;;;;;;30.93;14.63;;;-7.00;64.00;;;;;;5052205;28;20035;-72
2022/03/12 03:18:29;;;;;;;28.80;13.67;;;-7.00;63.70;;;;;;5053402;28;20070;-68
2022/03/12 03:20:56;;;;;;;25.73;12.90;;;-6.90;63.60;;;;;;5053248;28;20017;-72
2022/03/12 03:23:24;;;;;;;27.83;15.57;;;-6.90;63.50;;;;;;5051757;28;20414;-68
2022/03/12 03:25:50;;;;;;;27.73;13.30;;;-6.90;63.30;;;;;;5053185;28;20433;-71
2022/03/12 03:28:16;;;;;;;31.93;15.23;;;-6.90;63.10;;;;;;5051959;28;20561;-71
2022/03/12 03:30:42;;;;;;;31.60;13.57;;;-6.80;63.10;;;;;;5053328;28;20063;-71
2022/03/12 03:33:14;;;;;;;35.27;14.70;;;-6.80;63.10;;;;;;5053309;28;20093;-71
2022/03/12 03:35:40;;;;;;;28.88;13.35;;;-6.90;63.30;;;;;;5054371;28;20025;-72
2022/03/12 03:38:07;;;;;;;38.50;14.30;;;-6.90;63.10;;;;;;5057370;28;20552;-69
2022/03/12 03:40:32;;;;;;;28.43;14.20;;;-6.80;62.80;;;;;;5057447;28;20064;-69
2022/03/12 03:42:58;;;;;;;25.83;12.87;;;-6.80;62.70;;;;;;5057197;28;20060;-69
2022/03/12 03:45:27;;;;;;;25.87;15.10;;;-6.80;63.40;;;;;;5056097;28;20482;-69
2022/03/12 03:47:54;;;;;;;29.10;14.60;;;-6.80;62.90;;;;;;5055839;28;20029;-72
2022/03/12 03:50:25;;;;;;;30.17;13.30;;;-6.80;63.20;;;;;;5057334;28;20017;-68
2022/03/12 03:52:56;;;;;;;23.53;12.23;;;-6.80;63.60;;;;;;5057126;28;20029;-72
2022/03/12 03:55:25;;;;;;;26.57;12.50;;;-6.90;63.50;;;;;;5055803;28;20021;-68
2022/03/12 03:57:53;;;;;;;28.10;12.83;;;-6.90;63.40;;;;;;5055619;28;20508;-72
2022/03/12 04:00:21;;;;;;;24.87;14.67;;;-7.00;63.40;;;;;;5055767;28;20478;-72
2022/03/12 04:02:47;;;;;;;28.50;11.87;;;-7.00;63.20;;;;;;5056864;28;20044;-70
2022/03/12 04:05:13;;;;;;;23.27;11.37;;;-7.00;63.10;;;;;;5056883;28;20025;-71
2022/03/12 04:07:38;;;;;;;24.13;12.33;;;-7.00;63.00;;;;;;5056881;28;20025;-71
2022/03/12 04:10:04;;;;;;;27.70;11.73;;;-7.00;62.90;;;;;;5055555;28;20025;-72
2022/03/12 04:12:30;;;;;;;28.83;12.83;;;-7.00;62.80;;;;;;5055509;28;20378;-74
2022/03/12 04:14:57;;;;;;;24.30;11.40;;;-6.90;62.40;;;;;;5056754;28;20071;-74
2022/03/12 04:17:23;;;;;;;22.70;11.43;;;-6.80;62.20;;;;;;5056620;28;20082;-71
2022/03/12 04:19:49;;;;;;;23.13;12.23;;;-6.70;62.10;;;;;;5056558;28;20021;-74
2022/03/12 04:22:16;;;;;;;24.20;11.97;;;-6.70;62.00;;;;;;5056204;28;20029;-75
2022/03/12 04:24:41;;;;;;;25.73;10.87;;;-6.60;61.90;;;;;;5056592;28;20025;-71
2022/03/12 04:27:07;;;;;;;28.37;12.60;;;-6.60;61.70;;;;;;5056550;28;20375;-71
2022/03/12 04:29:33;;;;;;;24.30;11.67;;;-6.60;61.80;;;;;;5056422;28;20021;-74
2022/03/12 04:31:58;;;;;;;28.77;11.67;;;-6.60;61.90;;;;;;5056188;28;20021;-68
2022/03/12 04:34:24;;;;;;;28.83;12.53;;;-6.60;62.00;;;;;;5056504;28;20021;-72
2022/03/12 04:36:50;;;;;;;26.33;12.90;;;-6.60;62.00;;;;;;5055006;28;20036;-68
2022/03/12 04:39:15;;;;;;;28.03;13.03;;;-6.60;62.00;;;;;;5056174;28;20017;-72
2022/03/12 04:41:41;;;;;;;27.73;13.93;;;-6.60;62.00;;;;;;5055989;28;20041;-69
2022/03/12 04:44:07;;;;;;;28.43;14.57;;;-6.50;62.10;;;;;;5055716;28;20559;-69
2022/03/12 04:46:34;;;;;;;29.40;14.57;;;-6.50;62.20;;;;;;5055651;28;20033;-72
2022/03/12 04:49:00;;;;;;;29.23;15.00;;;-6.50;62.20;;;;;;5056039;28;20020;-69
2022/03/12 04:51:28;;;;;;;38.43;17.13;;;-6.50;62.40;;;;;;5055963;28;20021;-68
2022/03/12 04:53:57;;;;;;;25.97;13.63;;;-6.50;62.70;;;;;;5055839;28;20017;-69
2022/03/12 04:56:24;;;;;;;25.23;11.50;;;-6.60;62.50;;;;;;5055790;28;20552;-72
2022/03/12 04:58:51;;;;;;;30.13;13.63;;;-6.60;62.50;;;;;;5055920;28;20409;-71
2022/03/12 05:01:16;;;;;;;27.87;13.43;;;-6.60;62.60;;;;;;5055732;28;20032;-71
2022/03/12 05:03:43;;;;;;;22.67;13.03;;;-6.70;62.90;;;;;;5055913;28;20464;-72
2022/03/12 05:06:09;;;;;;;21.73;11.17;;;-6.70;63.10;;;;;;5055638;28;20074;-71
2022/03/12 05:08:37;;;;;;;21.97;12.10;;;-6.70;63.30;;;;;;5055803;28;20048;-69
2022/03/12 05:11:03;;;;;;;29.83;12.27;;;-6.70;63.40;;;;;;5055479;28;20143;-72
2022/03/12 05:13:29;;;;;;;22.67;11.50;;;-6.70;63.60;;;;;;5055530;28;20025;-72
2022/03/12 05:15:58;;;;;;;22.80;12.57;;;-6.60;63.50;;;;;;5055437;28;20070;-69
2022/03/12 05:18:26;;;;;;;27.33;12.43;;;-6.60;63.20;;;;;;5055635;28;20036;-72
2022/03/12 05:20:52;;;;;;;28.97;13.03;;;-6.50;63.00;;;;;;5055418;28;20526;-68
2022/03/12 05:23:19;;;;;;;28.77;12.73;;;-6.40;62.70;;;;;;5055126;28;20063;-68
2022/03/12 05:25:47;;;;;;;27.43;13.07;;;-6.40;62.60;;;;;;5054164;28;20016;-68
2022/03/12 05:28:15;;;;;;;24.90;13.17;;;-6.30;62.50;;;;;;5055387;28;20359;-68
2022/03/12 05:30:44;;;;;;;31.80;13.10;;;-6.30;62.30;;;;;;5055256;28;20390;-68
2022/03/12 05:33:10;;;;;;;22.63;12.40;;;-6.30;62.20;;;;;;5055270;28;20032;-72
2022/03/12 05:35:41;;;;;;;29.87;14.17;;;-6.20;62.10;;;;;;5055239;28;20039;-69
2022/03/12 05:38:09;;;;;;;34.93;13.13;;;-6.20;61.80;;;;;;5055086;28;20364;-68
2022/03/12 05:40:38;;;;;;;25.40;13.87;;;-6.20;61.80;;;;;;5054948;28;20087;-72
2022/03/12 05:43:07;;;;;;;27.67;14.87;;;-6.20;61.80;;;;;;5054958;28;20072;-72
2022/03/12 05:45:33;;;;;;;32.60;14.10;;;-6.10;62.10;;;;;;5054685;28;20075;-68
2022/03/12 05:47:58;;;;;;;30.03;13.80;;;-6.10;61.90;;;;;;5053318;28;20028;-72
2022/03/12 05:50:25;;;;;;;31.40;14.57;;;-6.10;61.90;;;;;;5054652;28;20108;-73
2022/03/12 05:52:51;;;;;;;28.83;13.43;;;-6.00;61.80;;;;;;5053235;28;20025;-73
2022/03/12 05:55:18;;;;;;;34.13;16.33;;;-6.00;61.80;;;;;;5054542;28;20505;-73
2022/03/12 05:57:44;;;;;;;32.33;14.27;;;-5.90;62.10;;;;;;5053971;28;20021;-68
2022/03/12 06:00:13;;;;;;;34.43;15.63;;;-5.80;62.10;;;;;;5053972;28;20085;-70
2022/03/12 06:02:52;;;;;;;29.67;15.00;;;-5.80;62.20;;;;;;5054434;28;20037;-68
2022/03/12 06:05:18;;;;;;;36.70;15.53;;;-5.70;62.20;;;;;;5054555;28;20069;-72
2022/03/12 06:07:45;;;;;;;37.93;16.80;;;-5.60;61.90;;;;;;5052829;28;20474;-69
2022/03/12 06:10:19;;;;;;;32.67;14.70;;;-5.50;61.80;;;;;;5053710;28;20029;-69
2022/03/12 06:12:45;;;;;;;26.33;15.23;;;-5.30;61.40;;;;;;5053575;28;20017;-68
2022/03/12 06:15:13;;;;;;;37.07;16.77;;;-5.20;60.90;;;;;;5053391;28;20031;-68
2022/03/12 06:17:39;;;;;;;43.60;18.00;;;-5.00;60.30;;;;;;5053676;28;20471;-72
2022/03/12 06:20:06;;;;;;;29.33;13.93;;;-4.80;60.10;;;;;;5053743;28;20042;-72
2022/03/12 06:22:32;;;;;;;32.60;15.03;;;-4.60;59.50;;;;;;5053744;28;20499;-73
2022/03/12 06:24:58;;;;;;;35.43;15.90;;;-4.50;58.90;;;;;;5054063;28;20031;-68
2022/03/12 06:27:23;;;;;;;34.03;14.13;;;-4.30;58.80;;;;;;5053923;28;20402;-68
2022/03/12 06:29:49;;;;;;;29.83;14.50;;;-4.10;58.30;;;;;;5053945;28;20482;-68
2022/03/12 06:32:14;;;;;;;27.70;14.50;;;-3.90;58.00;;;;;;5054115;28;20032;-72
2022/03/12 06:34:42;;;;;;;33.67;14.93;;;-3.70;57.60;;;;;;5054037;28;20455;-69
2022/03/12 06:37:08;;;;;;;24.33;13.40;;;-3.50;57.40;;;;;;5053844;28;20032;-68
2022/03/12 06:39:35;;;;;;;26.80;12.23;;;-3.30;56.40;;;;;;5052460;28;20028;-70
2022/03/12 06:42:01;;;;;;;24.38;14.70;;;-3.10;55.50;;;;;;5053562;28;20479;-73
2022/03/12 06:44:31;;;;;;;23.60;12.23;;;-3.00;54.80;;;;;;5053624;28;20133;-73
2022/03/12 06:46:56;;;;;;;32.15;13.10;;;-2.80;54.10;;;;;;5053589;28;20056;-72
2022/03/12 06:49:22;;;;;;;26.58;11.82;;;-2.70;54.10;;;;;;5052267;28;20083;-73
2022/03/12 06:51:48;;;;;;;19.67;10.48;;;-2.60;53.80;;;;;;5052027;28;20390;-73
2022/03/12 06:54:14;;;;;;;16.35;9.63;;;-2.50;53.70;;;;;;5050028;28;20025;-70
2022/03/12 06:56:39;;;;;;;17.33;9.93;;;-2.40;53.10;;;;;;5053169;28;20074;-68
2022/03/12 06:59:06;;;;;;;20.20;9.55;;;-2.20;53.30;;;;;;5053131;28;20067;-73
2022/03/12 07:01:31;;;;;;;15.20;8.60;;;-2.00;52.50;;;;;;5051838;28;20021;-72
2022/03/12 07:03:57;;;;;;;15.30;8.80;;;-1.90;51.90;;;;;;5051702;28;20025;-68
2022/03/12 07:06:22;;;;;;;17.65;8.35;;;-1.70;51.80;;;;;;5050611;28;20032;-69
2022/03/12 07:08:49;;;;;;;13.80;7.75;;;-1.50;51.30;;;;;;5052740;28;20036;-73
2022/03/12 07:11:16;;;;;;;14.52;7.97;;;-1.40;50.30;;;;;;5052807;28;20104;-73
2022/03/12 07:13:42;;;;;;;19.67;8.40;;;-1.30;50.00;;;;;;5052784;28;20021;-73
2022/03/12 07:16:08;;;;;;;18.88;8.10;;;-1.20;49.60;;;;;;5052917;28;20025;-73
2022/03/12 07:18:34;;;;;;;15.27;7.63;;;-1.00;49.50;;;;;;5051950;28;20053;-70
2022/03/12 07:21:00;;;;;;;14.95;6.78;;;-0.90;49.00;;;;;;5052941;28;20367;-73
2022/03/12 07:23:26;;;;;;;16.13;7.65;;;-0.80;48.30;;;;;;5052310;28;20049;-73
2022/03/12 07:25:52;;;;;;;10.65;6.65;;;-0.70;48.20;;;;;;5052657;28;20070;-73
2022/03/12 07:28:19;;;;;;;12.95;8.10;;;-0.60;47.30;;;;;;5051826;28;20021;-68
2022/03/12 07:30:45;;;;;;;14.95;7.60;;;-0.50;47.10;;;;;;5053118;28;20031;-73
2022/03/12 07:33:11;;;;;;;16.35;7.90;;;-0.40;47.00;;;;;;5052407;28;20025;-73
2022/03/12 07:35:37;;;;;;;18.38;9.35;;;-0.40;45.90;;;;;;5052889;28;20493;-73
2022/03/12 07:38:03;;;;;;;16.40;7.85;;;-0.30;46.20;;;;;;5052651;28;20021;-69
2022/03/12 07:40:29;;;;;;;17.10;7.82;;;-0.10;45.90;;;;;;5052941;28;20426;-68
2022/03/12 07:42:55;;;;;;;13.88;7.88;;;0.00;46.10;;;;;;5052620;28;20040;-68
2022/03/12 07:45:21;;;;;;;14.90;7.53;;;0.20;45.80;;;;;;5052554;28;20022;-69
2022/03/12 07:47:47;;;;;;;16.25;8.15;;;0.30;45.10;;;;;;5052649;28;20075;-69
2022/03/12 07:50:13;;;;;;;14.77;8.38;;;0.40;44.70;;;;;;5052605;28;20040;-70
2022/03/12 07:52:40;;;;;;;17.83;9.98;;;0.50;44.70;;;;;;5052006;28;20100;-68
2022/03/12 07:55:07;;;;;;;17.42;8.77;;;0.60;44.60;;;;;;5051520;28;20036;-73
2022/03/12 07:57:33;;;;;;;16.08;8.98;;;0.60;43.30;;;;;;5051700;28;20066;-73
2022/03/12 07:59:59;;;;;;;17.33;8.52;;;0.80;43.20;;;;;;5052871;28;20094;-72
2022/03/12 08:02:25;;;;;;;15.88;8.00;;;0.90;42.60;;;;;;5052849;28;20083;-73
2022/03/12 08:04:51;;;;;;;24.08;8.70;;;1.00;42.70;;;;;;5052927;28;20481;-68
2022/03/12 08:07:16;;;;;;;17.27;7.32;;;1.10;42.30;;;;;;5052817;28;20025;-68
2022/03/12 08:09:42;;;;;;;15.40;8.15;;;1.20;40.60;;;;;;5052959;28;20497;-69
2022/03/12 08:12:08;;;;;;;15.15;7.75;;;1.40;40.50;;;;;;5052777;28;20029;-69
2022/03/12 08:14:34;;;;;;;14.48;7.47;;;1.50;41.30;;;;;;5052739;28;20024;-70
2022/03/12 08:16:59;;;;;;;12.52;6.18;;;1.60;40.10;;;;;;5052741;28;20025;-73
2022/03/12 08:19:25;;;;;;;11.32;7.18;;;1.70;39.00;;;;;;5052957;28;20025;-69
2022/03/12 08:21:52;;;;;;;12.32;6.78;;;1.80;38.30;;;;;;5053890;28;20047;-72
2022/03/12 08:24:19;;;;;;;15.95;8.27;;;2.00;38.00;;;;;;5056587;28;20057;-73
2022/03/12 08:26:47;;;;;;;19.40;8.73;;;2.00;38.00;;;;;;5054874;28;20021;-68
2022/03/12 08:29:15;;;;;;;15.68;8.15;;;2.20;38.10;;;;;;5054841;28;20033;-68
2022/03/12 08:31:41;;;;;;;15.93;7.68;;;2.20;37.50;;;;;;5055058;28;20108;-72
2022/03/12 08:34:08;;;;;;;11.05;6.95;;;2.40;37.30;;;;;;5055945;28;20048;-72
2022/03/12 08:36:34;;;;;;;15.52;6.93;;;2.40;36.60;;;;;;5054395;28;20100;-72
2022/03/12 08:39:00;;;;;;;16.98;8.05;;;2.50;36.90;;;;;;5055934;28;20100;-72
2022/03/12 08:41:26;;;;;;;13.18;6.72;;;2.60;37.00;;;;;;5051437;28;20363;-72
2022/03/12 08:43:52;;;;;;;13.13;7.18;;;2.50;35.70;;;;;;5054428;28;20078;-73
2022/03/12 08:46:18;;;;;;;11.77;7.95;;;2.70;35.90;;;;;;5053141;28;20044;-73
2022/03/12 08:48:44;;;;;;;12.98;6.60;;;2.80;35.40;;;;;;5054979;28;20382;-72
2022/03/12 08:51:10;;;;;;;17.08;7.13;;;2.80;35.00;;;;;;5054944;28;20029;-72
2022/03/12 08:53:36;;;;;;;12.55;6.93;;;2.90;34.00;;;;;;5054756;28;20490;-72
2022/03/12 08:56:03;;;;;;;14.25;7.03;;;2.90;34.80;;;;;;5054720;28;20048;-72
2022/03/12 08:58:30;;;;;;;14.38;7.05;;;3.10;35.30;;;;;;5053605;28;20013;-71
2022/03/12 09:00:57;;;;;;;10.55;6.68;;;3.10;35.60;;;;;;5053472;28;20191;-72
2022/03/12 09:03:23;;;;;;;12.75;7.10;;;3.20;35.80;;;;;;5054402;28;20533;-72
2022/03/12 09:05:49;;;;;;;10.85;6.93;;;3.30;35.60;;;;;;5055032;28;20108;-72
2022/03/12 09:08:17;;;;;;;12.40;7.18;;;3.30;35.60;;;;;;5055139;28;20391;-71
2022/03/12 09:10:43;;;;;;;13.32;7.05;;;3.40;35.50;;;;;;5054025;28;20017;-73
2022/03/12 09:13:13;;;;;;;14.68;6.70;;;3.30;35.10;;;;;;5055237;28;20025;-72
2022/03/12 09:15:41;;;;;;;15.80;7.57;;;3.40;35.60;;;;;;5055197;28;20013;-68
2022/03/12 09:18:08;;;;;;;18.67;7.60;;;3.50;35.80;;;;;;5053594;28;20035;-68
2022/03/12 09:20:37;;;;;;;15.43;7.38;;;3.60;35.40;;;;;;5055172;28;20067;-72
2022/03/12 09:23:03;;;;;;;13.57;6.82;;;3.70;35.00;;;;;;5054685;28;20079;-72
2022/03/12 09:25:28;;;;;;;11.55;6.32;;;3.70;34.00;;;;;;5054834;28;20025;-72
2022/03/12 09:27:54;;;;;;;11.73;6.35;;;3.80;33.90;;;;;;5054789;28;20052;-72
2022/03/12 09:30:20;;;;;;;14.23;6.25;;;3.80;32.30;;;;;;5054660;28;20075;-72
2022/03/12 09:32:45;;;;;;;12.30;6.32;;;3.90;33.30;;;;;;5054752;28;20104;-72
2022/03/12 09:35:14;;;;;;;11.95;7.18;;;4.00;33.80;;;;;;5054763;28;20032;-73
2022/03/12 09:37:40;;;;;;;10.95;5.70;;;4.10;32.60;;;;;;5054439;28;20111;-73
2022/03/12 09:40:06;;;;;;;12.70;5.60;;;4.10;32.30;;;;;;5054654;28;20051;-69
2022/03/12 09:42:32;;;;;;;10.07;5.90;;;4.20;30.90;;;;;;5054635;28;20111;-68
2022/03/12 09:44:59;;;;;;;9.88;6.03;;;4.10;29.70;;;;;;5054596;28;20489;-69
2022/03/12 09:47:25;;;;;;;10.77;5.90;;;4.10;29.60;;;;;;5054296;28;20021;-68
2022/03/12 09:49:50;;;;;;;13.77;7.32;;;4.10;30.00;;;;;;5054576;28;20024;-69
2022/03/12 09:52:17;;;;;;;9.73;5.78;;;4.00;30.30;;;;;;5054622;28;20029;-68
2022/03/12 09:54:43;;;;;;;13.10;6.50;;;3.90;30.40;;;;;;5054487;28;20017;-68
2022/03/12 09:57:09;;;;;;;10.23;5.55;;;3.90;31.00;;;;;;5054246;28;20371;-72
2022/03/12 09:59:34;;;;;;;8.27;5.65;;;3.90;30.20;;;;;;5054365;28;20044;-72
2022/03/12 10:02:00;;;;;;;9.02;5.53;;;3.90;30.10;;;;;;5054149;28;20036;-73
2022/03/12 10:04:27;;;;;;;12.15;6.15;;;3.90;29.80;;;;;;5053001;28;20108;-69
2022/03/12 10:06:53;;;;;;;10.23;5.88;;;3.80;29.20;;;;;;5054164;28;20025;-73
2022/03/12 10:09:18;;;;;;;9.80;5.32;;;4.00;30.20;;;;;;5053909;28;20075;-73
2022/03/12 10:11:45;;;;;;;12.63;6.30;;;4.00;30.40;;;;;;5052781;28;20024;-73
2022/03/12 10:14:11;;;;;;;9.55;7.45;;;4.00;29.50;;;;;;5054051;28;20021;-73
2022/03/12 10:16:37;;;;;;;13.02;6.88;;;4.10;30.30;;;;;;5054074;28;20054;-73
2022/03/12 10:19:03;;;;;;;8.80;5.00;;;4.20;30.80;;;;;;5053742;28;20383;-73
2022/03/12 10:21:30;;;;;;;12.05;5.38;;;4.30;29.60;;;;;;5053729;28;20029;-68
2022/03/12 10:23:56;;;;;;;10.27;5.35;;;4.50;30.10;;;;;;5054155;28;20044;-69
2022/03/12 10:26:21;;;;;;;10.60;5.13;;;4.50;28.50;;;;;;5052812;28;20033;-70
2022/03/12 10:28:47;;;;;;;6.82;4.40;;;4.60;28.00;;;;;;5054040;28;20033;-73
2022/03/12 10:31:14;;;;;;;10.07;5.38;;;4.60;27.70;;;;;;5053778;28;20033;-73
2022/03/12 10:33:41;;;;;;;13.68;6.30;;;4.60;27.70;;;;;;5053854;28;20021;-69
2022/03/12 10:36:18;;;;;;;8.65;5.70;;;4.70;28.50;;;;;;5053712;28;20020;-73
2022/03/12 10:38:48;;;;;;;13.60;7.03;;;4.80;29.20;;;;;;5048976;28;20053;-69
2022/03/12 10:41:15;;;;;;;12.88;6.32;;;4.90;29.60;;;;;;5050629;28;20665;-69
2022/03/12 10:43:54;;;;;;;15.73;6.85;;;4.90;28.60;;;;;;5051948;28;20556;-70
2022/03/12 10:46:27;;;;;;;9.70;5.72;;;4.90;29.00;;;;;;5051576;28;20020;-69
2022/03/12 10:48:58;;;;;;;9.98;6.10;;;5.00;29.30;;;;;;5050543;28;20167;-69
2022/03/12 10:51:28;;;;;;;10.75;5.82;;;5.00;29.40;;;;;;5051897;28;20028;-73
2022/03/12 10:54:07;;;;;;;14.85;7.07;;;5.00;28.30;;;;;;5053216;28;20024;-73
2022/03/12 10:56:50;;;;;;;10.68;6.05;;;5.10;28.10;;;;;;5052062;28;20521;-74
2022/03/12 10:59:21;;;;;;;11.18;5.75;;;5.10;28.40;;;;;;5052228;28;20021;-73
2022/03/12 11:01:48;;;;;;;12.45;7.18;;;5.30;28.00;;;;;;5051028;28;20410;-73
2022/03/12 11:04:19;;;;;;;10.63;5.50;;;5.20;28.50;;;;;;5052509;28;20013;-74
2022/03/12 11:06:46;;;;;;;11.70;6.85;;;5.30;29.40;;;;;;5050997;28;20421;-73
2022/03/12 11:09:18;;;;;;;9.73;5.57;;;5.30;28.30;;;;;;5052299;28;20108;-74
2022/03/12 11:11:45;;;;;;;8.48;5.50;;;5.20;27.70;;;;;;5052512;28;20013;-70
2022/03/12 11:14:18;;;;;;;10.90;5.72;;;5.20;27.50;;;;;;5049635;28;20155;-70
2022/03/12 11:16:50;;;;;;;8.27;5.32;;;5.20;27.30;;;;;;5052341;28;20371;-70
2022/03/12 11:19:17;;;;;;;10.73;6.18;;;5.20;27.40;;;;;;5049243;28;20024;-74
2022/03/12 11:21:54;;;;;;;12.63;6.53;;;5.20;26.80;;;;;;5051427;28;20040;-74
2022/03/12 11:24:29;;;;;;;10.57;4.20;;;5.30;26.70;;;;;;5049650;28;20510;-74
2022/03/12 11:26:58;;;;;;;10.10;5.78;;;5.40;26.50;;;;;;5044116;28;20471;-74
2022/03/12 11:29:28;;;;;;;6.18;3.80;;;5.50;26.10;;;;;;5049071;28;20068;-74
2022/03/12 11:31:59;;;;;;;5.95;3.13;;;5.60;25.40;;;;;;5047591;28;20116;-74
2022/03/12 11:34:41;;;;;;;9.32;4.00;;;5.70;24.90;;;;;;5049254;28;20029;-74
2022/03/12 11:37:12;;;;;;;7.43;3.75;;;5.70;25.00;;;;;;5047775;28;20044;-74
2022/03/12 11:39:59;;;;;;;9.60;3.40;;;5.80;25.00;;;;;;5032639;28;20065;-74
2022/03/12 11:42:32;;;;;;;4.13;2.60;;;5.90;25.10;;;;;;5048585;28;20051;-74
2022/03/12 11:45:02;;;;;;;5.30;2.95;;;5.80;22.60;;;;;;5039820;28;20091;-74
2022/03/12 11:47:33;;;;;;;4.90;3.28;;;5.80;21.20;;;;;;5051439;28;20060;-74
2022/03/12 11:50:01;;;;;;;9.15;4.72;;;5.90;21.70;;;;;;5051382;28;20564;-74
2022/03/12 11:52:27;;;;;;;3.88;3.00;;;6.00;21.90;;;;;;5050050;28;20019;-74
2022/03/12 11:54:57;;;;;;;6.35;4.07;;;6.00;20.90;;;;;;5048879;28;20028;-74
2022/03/12 11:57:28;;;;;;;6.72;4.57;;;5.90;21.70;;;;;;5054075;28;20017;-74
2022/03/12 11:59:55;;;;;;;3.33;3.03;;;6.00;21.50;;;;;;5055781;28;20049;-74
2022/03/12 12:02:31;;;;;;;6.38;2.90;;;6.00;22.50;;;;;;5055499;28;20029;-74
2022/03/12 12:04:59;;;;;;;7.63;3.13;;;6.00;22.10;;;;;;5054414;28;20039;-73
2022/03/12 12:07:30;;;;;;;6.40;3.40;;;6.10;21.50;;;;;;5055844;28;20017;-74
2022/03/12 12:09:55;;;;;;;5.15;3.47;;;6.10;22.50;;;;;;5055041;28;20404;-74
2022/03/12 12:12:27;;;;;;;7.80;3.75;;;6.10;21.40;;;;;;5055601;28;20021;-73
2022/03/12 12:14:55;;;;;;;7.60;4.43;;;6.00;21.90;;;;;;5055165;28;20021;-73
2022/03/12 12:17:20;;;;;;;14.70;4.22;;;6.10;22.10;;;;;;5055540;28;20025;-73
2022/03/12 12:19:46;;;;;;;8.02;3.67;;;6.30;23.60;;;;;;5055459;28;20029;-74
2022/03/12 12:22:13;;;;;;;7.10;4.50;;;6.30;23.90;;;;;;5054918;28;20053;-74
2022/03/12 12:24:39;;;;;;;8.10;4.82;;;6.40;22.20;;;;;;5054864;28;20049;-74
2022/03/12 12:27:10;;;;;;;5.93;4.10;;;6.50;22.30;;;;;;5053761;28;20033;-74
2022/03/12 12:29:52;;;;;;;7.65;4.25;;;6.50;23.50;;;;;;5055701;28;20021;-74
2022/03/12 12:32:24;;;;;;;6.75;3.92;;;6.40;23.60;;;;;;5055239;28;20099;-73
2022/03/12 12:35:15;;;;;;;8.00;4.35;;;6.40;21.50;;;;;;5055461;28;20108;-73
2022/03/12 12:37:42;;;;;;;8.70;4.25;;;6.40;22.60;;;;;;5055420;28;20450;-73